createdAt,value
2023-05-11T00:00:39.703Z,53.82
2023-05-11T00:03:07.152Z,54.29
2023-05-11T00:08:17.225Z,54.42
2023-05-11T00:10:48.273Z,54.35
2023-05-11T00:13:15.421Z,54.60
2023-05-11T00:15:42.383Z,55.22
2023-05-11T00:18:09.475Z,54.99
2023-05-11T00:20:36.421Z,54.51
2023-05-11T00:23:03.362Z,54.50
2023-05-11T00:25:30.307Z,54.46
2023-05-11T00:27:57.241Z,54.87
2023-05-11T00:30:24.290Z,55.18
2023-05-11T00:32:52.346Z,55.55
2023-05-11T00:35:19.367Z,55.80
2023-05-11T00:37:46.334Z,55.96
2023-05-11T00:40:13.267Z,56.37
2023-05-11T00:42:40.450Z,56.99
2023-05-11T00:45:08.101Z,57.35
2023-05-11T00:47:35.164Z,57.88
2023-05-11T00:50:02.230Z,58.07
2023-05-11T00:52:29.255Z,58.02
2023-05-11T00:54:56.323Z,57.89
2023-05-11T00:57:23.350Z,58.19
2023-05-11T00:59:50.517Z,59.14
2023-05-11T01:02:17.943Z,58.65
2023-05-11T01:04:44.989Z,58.06
2023-05-11T01:07:18.012Z,58.26
2023-05-11T01:10:06.637Z,58.32
2023-05-11T01:12:44.632Z,58.87
2023-05-11T01:15:37.100Z,59.00
2023-05-11T01:18:23.958Z,59.34
2023-05-11T01:20:53.652Z,59.41
2023-05-11T01:23:21.081Z,59.70
2023-05-11T01:26:26.082Z,60.81
2023-05-11T01:29:31.470Z,61.81
2023-05-11T01:31:58.618Z,62.63
2023-05-11T01:34:28.719Z,63.76
2023-05-11T01:36:58.755Z,64.29
2023-05-11T01:39:30.901Z,64.42
2023-05-11T01:41:58.002Z,64.28
2023-05-11T01:44:25.952Z,64.03
2023-05-11T01:46:53.014Z,63.85
2023-05-11T01:49:19.924Z,64.78
2023-05-11T01:51:49.637Z,65.09
2023-05-11T01:54:17.606Z,64.99
2023-05-11T01:56:44.618Z,65.70
2023-05-11T01:59:12.144Z,66.44
2023-05-11T02:01:39.132Z,66.94
2023-05-11T02:04:06.732Z,67.30
2023-05-11T02:06:33.732Z,67.93
2023-05-11T02:09:01.524Z,68.44
2023-05-11T02:11:28.495Z,69.31
2023-05-11T02:13:56.690Z,70.07
2023-05-11T02:16:24.596Z,70.45
2023-05-11T02:18:51.879Z,70.76
2023-05-11T02:21:20.070Z,70.64
2023-05-11T02:23:47.095Z,69.91
2023-05-11T02:26:14.157Z,69.37
2023-05-11T02:28:41.357Z,69.31
2023-05-11T02:31:10.505Z,69.44
2023-05-11T02:33:39.935Z,68.71
2023-05-11T02:36:08.285Z,68.60
2023-05-11T02:38:36.119Z,68.63
2023-05-11T02:41:06.421Z,68.48
2023-05-11T02:43:35.656Z,68.29
2023-05-11T02:46:04.177Z,68.44
2023-05-11T02:48:32.866Z,68.37
2023-05-11T02:51:01.408Z,68.95
2023-05-11T02:53:33.375Z,69.77
2023-05-11T02:56:01.013Z,69.73
2023-05-11T02:58:30.069Z,68.70
2023-05-11T03:01:07.010Z,69.01
2023-05-11T03:03:34.152Z,69.35
2023-05-11T03:06:01.435Z,69.36
2023-05-11T03:08:28.550Z,69.42
2023-05-11T03:10:55.502Z,69.56
2023-05-11T03:13:22.930Z,69.13
2023-05-11T03:15:51.647Z,69.41
2023-05-11T03:18:19.284Z,69.71
2023-05-11T03:20:46.280Z,69.12
2023-05-11T03:23:13.663Z,68.90
2023-05-11T03:25:42.100Z,68.97
2023-05-11T03:28:11.343Z,68.44
2023-05-11T03:30:39.131Z,69.29
2023-05-11T03:33:06.859Z,70.43
2023-05-11T03:35:34.342Z,70.72
2023-05-11T03:38:01.559Z,70.26
2023-05-11T03:40:31.676Z,69.78
2023-05-11T03:43:00.338Z,69.77
2023-05-11T03:45:27.666Z,69.43
2023-05-11T03:47:54.966Z,68.50
2023-05-11T03:50:22.055Z,68.37
2023-05-11T03:52:49.500Z,68.54
2023-05-11T03:55:16.572Z,68.28
2023-05-11T03:57:43.575Z,68.43
2023-05-11T04:00:11.786Z,68.79
2023-05-11T04:02:44.854Z,69.57
2023-05-11T04:05:12.550Z,70.82
2023-05-11T04:07:40.204Z,71.84
2023-05-11T04:10:07.816Z,71.58
2023-05-11T04:12:34.884Z,70.92
2023-05-11T04:15:01.981Z,70.23
2023-05-11T04:17:29.281Z,70.19
2023-05-11T04:19:56.369Z,69.44
2023-05-11T04:22:23.465Z,70.25
2023-05-11T04:24:50.453Z,70.65
2023-05-11T04:27:17.547Z,69.53
2023-05-11T04:29:45.104Z,67.32
2023-05-11T04:32:12.181Z,65.71
2023-05-11T04:34:39.566Z,65.62
2023-05-11T04:37:07.654Z,65.98
2023-05-11T04:39:35.906Z,65.63
2023-05-11T04:42:03.180Z,64.91
2023-05-11T04:44:30.120Z,64.18
2023-05-11T04:46:57.661Z,63.76
2023-05-11T04:49:24.703Z,64.07
2023-05-11T04:51:51.724Z,63.71
2023-05-11T04:54:18.760Z,63.03
2023-05-11T04:56:46.000Z,62.20
2023-05-11T04:59:14.479Z,62.00
2023-05-11T05:01:41.641Z,61.90
2023-05-11T05:04:08.909Z,61.14
2023-05-11T05:06:36.511Z,60.61
2023-05-11T05:09:03.604Z,58.96
2023-05-11T05:11:30.772Z,58.39
2023-05-11T05:13:57.758Z,57.76
2023-05-11T05:16:24.762Z,57.49
2023-05-11T05:18:51.825Z,56.86
2023-05-11T05:21:18.831Z,56.68
2023-05-11T05:23:45.768Z,56.36
2023-05-11T05:26:12.814Z,55.76
2023-05-11T05:28:41.066Z,55.70
2023-05-11T05:31:08.946Z,55.12
2023-05-11T05:33:35.912Z,53.95
2023-05-11T05:36:03.019Z,52.63
2023-05-11T05:38:30.208Z,52.74
2023-05-11T05:40:58.061Z,52.67
2023-05-11T05:43:26.129Z,52.55
2023-05-11T05:45:53.283Z,52.12
2023-05-11T05:48:20.838Z,51.84
2023-05-11T05:50:48.712Z,51.28
2023-05-11T05:53:16.530Z,50.50
2023-05-11T05:55:44.304Z,49.61
2023-05-11T05:58:11.642Z,48.80
2023-05-11T06:00:38.804Z,48.11
2023-05-11T06:03:07.123Z,48.13
2023-05-11T06:05:34.213Z,47.84
2023-05-11T06:08:10.080Z,47.07
2023-05-11T06:10:38.830Z,46.90
2023-05-11T06:13:07.179Z,46.90
2023-05-11T06:15:34.723Z,46.42
2023-05-11T06:18:07.953Z,46.67
2023-05-11T06:20:35.827Z,46.73
2023-05-11T06:23:04.586Z,46.69
2023-05-11T06:25:35.999Z,46.28
2023-05-11T06:28:03.382Z,46.10
2023-05-11T06:30:31.521Z,45.42
2023-05-11T06:32:59.192Z,45.41
2023-05-11T06:35:26.416Z,45.10
2023-05-11T06:37:53.412Z,45.09
2023-05-11T06:40:20.831Z,45.29
2023-05-11T06:42:47.954Z,45.21
2023-05-11T06:45:15.053Z,44.84
2023-05-11T06:47:42.602Z,44.41
2023-05-11T06:50:10.069Z,43.77
2023-05-11T06:52:37.938Z,43.25
2023-05-11T06:55:05.582Z,43.31
2023-05-11T06:57:32.669Z,43.33
2023-05-11T06:59:59.597Z,42.76
2023-05-11T07:02:26.690Z,42.64
2023-05-11T07:04:53.784Z,42.33
2023-05-11T07:07:20.876Z,41.77
2023-05-11T07:09:47.804Z,41.44
2023-05-11T07:12:14.726Z,41.07
2023-05-11T07:14:41.712Z,40.58
2023-05-11T07:17:08.856Z,39.81
2023-05-11T07:19:36.011Z,39.73
2023-05-11T07:22:03.088Z,39.60
2023-05-11T07:24:30.067Z,38.69
2023-05-11T07:26:57.679Z,38.32
2023-05-11T07:29:24.794Z,38.10
2023-05-11T07:31:51.899Z,37.60
2023-05-11T07:34:18.907Z,36.13
2023-05-11T07:36:46.857Z,36.32
2023-05-11T07:39:16.323Z,35.21
2023-05-11T07:41:43.436Z,35.29
2023-05-11T07:44:10.489Z,34.69
2023-05-11T07:46:37.548Z,33.84
2023-05-11T07:49:15.736Z,33.92
2023-05-11T07:51:47.886Z,33.34
2023-05-11T07:54:14.890Z,33.69
2023-05-11T07:56:42.382Z,33.23
2023-05-11T07:59:09.466Z,33.62
2023-05-11T08:01:36.909Z,34.25
2023-05-11T08:04:04.106Z,34.88
2023-05-11T08:06:31.352Z,34.58
2023-05-11T08:08:58.485Z,34.25
2023-05-11T08:11:26.272Z,34.53
2023-05-11T08:13:53.267Z,34.08
2023-05-11T08:16:20.236Z,33.25
2023-05-11T08:18:47.324Z,32.60
2023-05-11T08:21:14.675Z,31.94
2023-05-11T08:23:43.448Z,31.82
2023-05-11T08:26:11.549Z,31.90
2023-05-11T08:28:38.566Z,31.78
2023-05-11T08:31:06.398Z,31.79
2023-05-11T08:33:38.386Z,31.74
2023-05-11T08:36:07.066Z,31.05
2023-05-11T08:38:35.443Z,30.23
2023-05-11T08:41:02.874Z,30.30
2023-05-11T08:43:30.181Z,30.16
2023-05-11T08:45:58.320Z,29.92
2023-05-11T08:48:25.295Z,30.06
2023-05-11T08:50:52.815Z,29.96
2023-05-11T08:53:19.869Z,29.88
2023-05-11T08:55:47.063Z,29.78
2023-05-11T08:58:19.600Z,29.66
2023-05-11T09:00:47.404Z,29.95
2023-05-11T09:03:14.675Z,29.57
2023-05-11T09:05:41.766Z,29.38
2023-05-11T09:08:09.142Z,29.25
2023-05-11T09:10:36.921Z,28.81
2023-05-11T09:13:03.971Z,28.79
2023-05-11T09:15:36.974Z,28.71
2023-05-11T09:18:05.026Z,28.86
2023-05-11T09:20:32.621Z,29.90
2023-05-11T09:22:59.904Z,30.56
2023-05-11T09:25:27.495Z,30.14
2023-05-11T09:27:54.461Z,30.10
2023-05-11T09:30:23.709Z,29.53
2023-05-11T09:32:58.370Z,28.57
2023-05-11T09:35:32.357Z,28.76
2023-05-11T09:38:12.645Z,28.04
2023-05-11T09:40:43.354Z,28.41
2023-05-11T09:43:17.484Z,28.24
2023-05-11T09:45:45.645Z,28.07
2023-05-11T09:48:22.046Z,27.85
2023-05-11T09:50:49.533Z,27.95
2023-05-11T09:53:17.273Z,28.25
2023-05-11T09:55:55.200Z,28.45
2023-05-11T09:58:22.359Z,28.56
2023-05-11T10:00:53.798Z,28.36
2023-05-11T10:03:21.067Z,28.62
2023-05-11T10:05:59.015Z,28.42
2023-05-11T10:08:38.935Z,27.77
2023-05-11T10:11:05.951Z,27.65
2023-05-11T10:13:32.981Z,27.56
2023-05-11T10:16:00.231Z,27.49
2023-05-11T10:18:27.346Z,27.64
2023-05-11T10:20:54.312Z,27.31
2023-05-11T10:23:21.337Z,27.27
2023-05-11T10:25:48.337Z,27.42
2023-05-11T10:28:15.240Z,27.56
2023-05-11T10:30:42.273Z,27.86
2023-05-11T10:33:09.384Z,28.11
2023-05-11T10:35:37.848Z,27.99
2023-05-11T10:38:06.023Z,28.02
2023-05-11T10:40:42.196Z,27.91
2023-05-11T10:43:27.456Z,28.03
2023-05-11T10:45:57.895Z,27.98
2023-05-11T10:48:31.387Z,27.77
2023-05-11T10:51:01.543Z,27.88
2023-05-11T10:53:34.776Z,27.88
2023-05-11T10:56:20.414Z,27.75
2023-05-11T10:59:16.202Z,27.92
2023-05-11T11:01:43.902Z,27.92
2023-05-11T11:04:12.172Z,27.92
2023-05-11T11:06:43.309Z,28.04
2023-05-11T11:09:14.702Z,28.03
2023-05-11T11:11:46.533Z,27.69
2023-05-11T11:14:14.917Z,27.83
2023-05-11T11:16:42.666Z,27.28
2023-05-11T11:19:31.474Z,27.25
2023-05-11T11:22:02.162Z,27.28
2023-05-11T11:24:38.579Z,27.54
2023-05-11T11:27:06.323Z,27.73
2023-05-11T11:29:34.790Z,27.67
2023-05-11T11:32:20.154Z,27.83
2023-05-11T11:34:47.459Z,27.73
2023-05-11T11:37:15.329Z,27.91
2023-05-11T11:39:42.581Z,27.96
2023-05-11T11:42:13.675Z,28.08
2023-05-11T11:44:41.865Z,27.80
2023-05-11T11:47:15.014Z,27.78
2023-05-11T11:49:43.762Z,28.10
2023-05-11T11:52:34.873Z,27.94
2023-05-11T11:55:05.362Z,27.73
2023-05-11T11:57:32.764Z,27.56
2023-05-11T12:00:07.244Z,27.75
2023-05-11T12:02:41.177Z,27.60
2023-05-11T12:05:19.151Z,27.94
2023-05-11T12:07:48.676Z,27.73
2023-05-11T12:10:17.771Z,27.67
2023-05-11T12:12:45.596Z,27.37
2023-05-11T12:15:26.115Z,27.29
2023-05-11T12:17:53.280Z,27.51
2023-05-11T12:20:21.069Z,27.65
2023-05-11T12:22:49.455Z,27.51
2023-05-11T12:25:18.523Z,27.47
2023-05-11T12:27:55.467Z,27.18
2023-05-11T12:30:27.272Z,26.96
2023-05-11T12:32:57.574Z,26.84
2023-05-11T12:35:28.937Z,26.81
2023-05-11T12:37:56.897Z,26.72
2023-05-11T12:40:24.590Z,26.55
2023-05-11T12:42:56.276Z,26.36
2023-05-11T12:45:26.062Z,26.37
2023-05-11T12:47:55.167Z,26.59
2023-05-11T12:50:22.784Z,26.90
2023-05-11T12:52:50.595Z,27.12
2023-05-11T12:55:30.474Z,27.01
2023-05-11T12:58:08.190Z,27.04
2023-05-11T13:00:35.639Z,27.09
2023-05-11T13:03:02.806Z,27.06
2023-05-11T13:05:30.243Z,27.28
2023-05-11T13:08:01.466Z,27.68
2023-05-11T13:10:28.711Z,27.82
2023-05-11T13:12:56.307Z,27.57
2023-05-11T13:15:24.578Z,27.30
2023-05-11T13:17:59.611Z,27.27
2023-05-11T13:20:28.072Z,27.47
2023-05-11T13:23:07.465Z,27.32
2023-05-11T13:25:47.356Z,27.14
2023-05-11T13:28:18.769Z,27.31
2023-05-11T13:30:46.391Z,27.37
2023-05-11T13:33:13.569Z,26.95
2023-05-11T13:35:41.772Z,26.80
2023-05-11T13:38:09.405Z,26.85
2023-05-11T13:40:36.592Z,26.99
2023-05-11T13:43:03.897Z,27.15
2023-05-11T13:45:30.857Z,26.96
2023-05-11T13:47:58.003Z,27.01
2023-05-11T13:50:25.737Z,26.99
2023-05-11T13:52:53.280Z,27.08
2023-05-11T13:55:21.249Z,27.02
2023-05-11T13:57:48.643Z,27.13
2023-05-11T14:00:16.213Z,27.38
2023-05-11T14:02:44.413Z,27.20
2023-05-11T14:05:11.544Z,27.29
2023-05-11T14:07:46.470Z,27.29
2023-05-11T14:10:16.400Z,27.12
2023-05-11T14:12:43.436Z,26.98
2023-05-11T14:15:10.762Z,26.86
2023-05-11T14:17:37.876Z,26.98
2023-05-11T14:20:06.316Z,27.00
2023-05-11T14:22:33.267Z,27.14
2023-05-11T14:25:01.943Z,27.35
2023-05-11T14:27:29.084Z,27.45
2023-05-11T14:29:56.421Z,27.55
2023-05-11T14:32:23.662Z,27.71
2023-05-11T14:34:50.773Z,27.77
2023-05-11T14:37:17.742Z,27.61
2023-05-11T14:39:45.114Z,27.79
2023-05-11T14:42:12.032Z,27.83
2023-05-11T14:44:38.984Z,27.98
2023-05-11T14:47:06.495Z,28.13
2023-05-11T14:49:33.664Z,28.06
2023-05-11T14:52:00.834Z,28.07
2023-05-11T14:54:27.986Z,27.86
2023-05-11T14:56:56.695Z,27.84
2023-05-11T14:59:25.382Z,27.81
2023-05-11T15:01:52.619Z,27.94
2023-05-11T15:04:20.358Z,28.10
2023-05-11T15:06:47.809Z,27.98
2023-05-11T15:09:15.039Z,27.70
2023-05-11T15:11:42.304Z,27.64
2023-05-11T15:14:09.996Z,27.76
2023-05-11T15:16:37.908Z,28.01
2023-05-11T15:19:06.113Z,28.09
2023-05-11T15:21:33.534Z,28.21
2023-05-11T15:24:00.544Z,28.30
2023-05-11T15:26:27.467Z,28.38
2023-05-11T15:28:54.770Z,28.26
2023-05-11T15:31:22.608Z,28.50
2023-05-11T15:33:49.941Z,28.48
2023-05-11T15:36:17.025Z,28.34
2023-05-11T15:38:44.756Z,28.39
2023-05-11T15:41:11.856Z,28.38
2023-05-11T15:43:38.843Z,28.51
2023-05-11T15:46:07.206Z,28.36
2023-05-11T15:48:34.678Z,28.58
2023-05-11T15:51:02.190Z,28.64
2023-05-11T15:53:29.648Z,28.66
2023-05-11T15:55:57.037Z,28.33
2023-05-11T15:58:24.117Z,28.35
2023-05-11T16:00:51.452Z,28.45
2023-05-11T16:03:19.964Z,28.48
2023-05-11T16:05:47.432Z,28.54
2023-05-11T16:08:14.772Z,28.43
2023-05-11T16:10:41.842Z,28.44
2023-05-11T16:13:09.389Z,28.33
2023-05-11T16:15:36.690Z,28.55
2023-05-11T16:18:05.190Z,28.64
2023-05-11T16:20:32.835Z,28.78
2023-05-11T16:23:00.234Z,28.94
2023-05-11T16:25:27.490Z,29.03
2023-05-11T16:27:54.491Z,29.02
2023-05-11T16:30:25.541Z,29.18
2023-05-11T16:32:53.682Z,29.34
2023-05-11T16:35:20.992Z,29.47
2023-05-11T16:37:48.470Z,29.50
2023-05-11T16:40:19.133Z,29.41
2023-05-11T16:42:47.618Z,29.62
2023-05-11T16:45:15.333Z,29.87
2023-05-11T16:47:45.269Z,29.88
2023-05-11T16:50:16.473Z,29.93
2023-05-11T16:52:43.761Z,30.00
2023-05-11T16:55:11.059Z,30.11
2023-05-11T16:57:38.167Z,30.22
2023-05-11T17:00:06.554Z,30.38
2023-05-11T17:02:33.773Z,30.36
2023-05-11T17:05:01.119Z,30.39
2023-05-11T17:07:28.064Z,30.42
2023-05-11T17:09:57.280Z,30.52
2023-05-11T17:12:24.514Z,30.81
2023-05-11T17:14:51.582Z,30.82
2023-05-11T17:17:18.677Z,30.98
2023-05-11T17:19:45.742Z,31.09
2023-05-11T17:22:12.938Z,31.11
2023-05-11T17:24:40.228Z,31.16
2023-05-11T17:27:07.483Z,31.52
2023-05-11T17:29:34.603Z,31.78
2023-05-11T17:32:01.929Z,31.69
2023-05-11T17:34:29.900Z,31.84
2023-05-11T17:36:57.226Z,32.01
2023-05-11T17:39:24.736Z,32.16
2023-05-11T17:41:51.904Z,32.14
2023-05-11T17:44:19.016Z,32.35
2023-05-11T17:46:46.414Z,32.35
2023-05-11T17:49:13.865Z,32.54
2023-05-11T17:51:40.939Z,32.62
2023-05-11T17:54:07.891Z,32.67
2023-05-11T17:56:35.171Z,32.74
2023-05-11T17:59:02.441Z,32.98
2023-05-11T18:01:29.572Z,33.22
2023-05-11T18:03:57.867Z,33.33
2023-05-11T18:06:25.194Z,33.59
2023-05-11T18:08:52.777Z,33.70
2023-05-11T18:11:20.038Z,33.94
2023-05-11T18:13:47.382Z,33.94
2023-05-11T18:16:14.666Z,33.98
2023-05-11T18:18:42.798Z,33.96
2023-05-11T18:21:10.929Z,34.19
2023-05-11T18:23:38.004Z,34.28
2023-05-11T18:26:06.004Z,34.35
2023-05-11T18:28:33.436Z,34.56
2023-05-11T18:31:00.561Z,34.71
2023-05-11T18:33:27.609Z,34.76
2023-05-11T18:35:54.538Z,34.83
2023-05-11T18:38:21.601Z,35.03
2023-05-11T18:40:48.737Z,34.89
2023-05-11T18:43:15.657Z,35.04
2023-05-11T18:45:44.373Z,35.25
2023-05-11T18:48:11.586Z,35.06
2023-05-11T18:50:39.400Z,35.09
2023-05-11T18:53:06.431Z,35.28
2023-05-11T18:55:44.811Z,35.19
2023-05-11T18:58:12.885Z,35.33
2023-05-11T19:00:40.658Z,35.32
2023-05-11T19:03:07.961Z,35.24
2023-05-11T19:05:34.931Z,35.35
2023-05-11T19:08:03.094Z,35.37
2023-05-11T19:10:55.832Z,35.19
2023-05-11T19:13:53.345Z,35.12
2023-05-11T19:19:11.993Z,35.37
2023-05-11T19:21:48.123Z,35.52
2023-05-11T19:24:25.788Z,35.52
2023-05-11T19:27:06.022Z,35.55
2023-05-11T19:29:57.740Z,35.81
2023-05-11T19:35:33.843Z,35.98
2023-05-11T19:38:08.563Z,36.05
2023-05-11T19:41:06.257Z,36.28
2023-05-11T19:43:35.780Z,36.34
2023-05-11T19:46:22.552Z,36.49
2023-05-11T19:49:03.026Z,36.50
2023-05-11T19:51:32.185Z,36.71
2023-05-11T19:54:02.208Z,36.72
2023-05-11T19:59:41.417Z,37.02
2023-05-11T20:02:09.252Z,36.91
2023-05-11T20:04:36.380Z,37.11
2023-05-11T20:07:04.158Z,37.27
2023-05-11T20:09:31.260Z,37.31
2023-05-11T20:11:58.230Z,37.44
2023-05-11T20:14:25.281Z,37.55
2023-05-11T20:16:52.242Z,37.38
2023-05-11T20:19:19.164Z,37.46
2023-05-11T20:21:46.010Z,37.57
2023-05-11T20:24:13.160Z,37.65
2023-05-11T20:26:40.103Z,37.70
2023-05-11T20:29:09.295Z,37.85
2023-05-11T20:31:36.535Z,37.94
2023-05-11T20:36:33.153Z,37.54
2023-05-11T20:39:00.256Z,37.55
2023-05-11T20:41:28.365Z,37.77
2023-05-11T20:43:55.524Z,37.70
2023-05-11T20:46:22.837Z,37.87
2023-05-11T20:48:51.941Z,37.76
2023-05-11T20:51:23.452Z,37.65
2023-05-11T20:53:50.841Z,37.63
2023-05-11T20:56:17.922Z,37.87
2023-05-11T20:58:47.570Z,37.88
2023-05-11T21:01:14.799Z,37.81
2023-05-11T21:03:42.071Z,37.94
2023-05-11T21:06:09.202Z,38.00
2023-05-11T21:08:36.436Z,38.14
2023-05-11T21:11:03.736Z,38.03
2023-05-11T21:13:30.914Z,38.09
2023-05-11T21:15:58.038Z,38.14
2023-05-11T21:18:32.167Z,38.12
2023-05-11T21:20:59.438Z,38.22
2023-05-11T21:23:26.995Z,38.36
2023-05-11T21:25:54.666Z,38.51
2023-05-11T21:28:21.946Z,38.28
2023-05-11T21:30:50.238Z,38.54
2023-05-11T21:33:17.549Z,38.45
2023-05-11T21:35:44.766Z,38.37
2023-05-11T21:38:15.073Z,38.44
2023-05-11T21:40:42.325Z,38.49
2023-05-11T21:43:10.992Z,38.50
2023-05-11T21:45:39.015Z,39.22
2023-05-11T21:48:06.527Z,39.11
2023-05-11T21:50:33.807Z,38.83
2023-05-11T21:53:00.954Z,39.05
2023-05-11T21:55:28.064Z,39.02
2023-05-11T21:57:55.261Z,39.18
2023-05-11T22:00:23.050Z,39.64
2023-05-11T22:02:50.471Z,40.18
2023-05-11T22:05:17.716Z,40.28
2023-05-11T22:07:45.062Z,40.23
2023-05-11T22:10:12.462Z,40.68
2023-05-11T22:12:39.576Z,41.29
2023-05-11T22:15:08.650Z,41.07
2023-05-11T22:17:39.691Z,40.40
2023-05-11T22:20:08.290Z,40.06
2023-05-11T22:22:35.734Z,39.53
2023-05-11T22:25:03.177Z,39.53
2023-05-11T22:27:30.347Z,39.43
2023-05-11T22:29:57.522Z,39.73
2023-05-11T22:32:24.719Z,40.02
2023-05-11T22:34:58.732Z,40.17
2023-05-11T22:37:26.603Z,40.16
2023-05-11T22:39:54.191Z,40.35
2023-05-11T22:42:22.018Z,40.14
2023-05-11T22:44:49.009Z,40.19
2023-05-11T22:47:16.057Z,40.39
2023-05-11T22:49:43.374Z,40.71
2023-05-11T22:52:10.549Z,40.82
2023-05-11T22:54:37.654Z,40.70
2023-05-11T22:57:04.864Z,40.73
2023-05-11T22:59:34.613Z,40.78
2023-05-11T23:02:03.362Z,40.90
2023-05-11T23:04:31.379Z,40.98
2023-05-11T23:06:59.681Z,41.07
2023-05-11T23:09:26.777Z,41.12
2023-05-11T23:11:54.021Z,41.20
2023-05-11T23:14:21.098Z,41.31
2023-05-11T23:16:48.021Z,41.49
2023-05-11T23:19:14.976Z,41.58
2023-05-11T23:21:42.044Z,41.69
2023-05-11T23:24:09.121Z,41.88
2023-05-11T23:26:36.444Z,41.85
2023-05-11T23:29:03.835Z,42.26
2023-05-11T23:31:32.493Z,42.30
2023-05-11T23:34:00.687Z,42.49
2023-05-11T23:36:27.740Z,42.42
2023-05-11T23:38:54.783Z,42.78
2023-05-11T23:41:22.416Z,43.08
2023-05-11T23:43:49.561Z,42.98
2023-05-11T23:46:16.695Z,42.83
2023-05-11T23:48:43.745Z,43.03
2023-05-11T23:51:10.893Z,42.96
2023-05-11T23:53:38.339Z,43.07
2023-05-11T23:56:05.588Z,42.90
2023-05-11T23:58:32.662Z,42.96
